createdAt,value
2018-12-16T00:01:57.355Z,102661.77
2018-12-16T00:04:25.639Z,102659.57
2018-12-16T00:06:53.979Z,102661.44
2018-12-16T00:09:22.319Z,102656.73
2018-12-16T00:11:50.637Z,102655.89
2018-12-16T00:14:18.983Z,102649.20
2018-12-16T00:16:47.331Z,102643.79
2018-12-16T00:19:15.670Z,102638.00
2018-12-16T00:21:43.997Z,102647.41
2018-12-16T00:24:12.517Z,102646.93
2018-12-16T00:26:52.666Z,102648.64
2018-12-16T00:29:21.045Z,102647.09
2018-12-16T00:31:49.400Z,102646.29
2018-12-16T00:34:17.741Z,102643.49
2018-12-16T00:36:46.082Z,102647.39
2018-12-16T00:39:14.415Z,102640.30
2018-12-16T00:41:42.758Z,102638.89
2018-12-16T00:44:11.111Z,102638.66
2018-12-16T00:46:39.449Z,102638.55
2018-12-16T00:49:07.789Z,102630.32
2018-12-16T00:51:36.131Z,102626.34
2018-12-16T00:54:04.487Z,102621.70
2018-12-16T00:56:32.830Z,102619.33
2018-12-16T00:59:01.176Z,102618.70
2018-12-16T01:01:29.502Z,102612.62
2018-12-16T01:03:57.861Z,102612.59
2018-12-16T01:06:26.785Z,102608.77
2018-12-16T01:09:02.615Z,102604.66
2018-12-16T01:11:30.943Z,102600.17
2018-12-16T01:13:59.309Z,102601.70
2018-12-16T01:16:27.686Z,102603.97
2018-12-16T01:18:56.038Z,102597.72
2018-12-16T01:21:24.374Z,102598.75
2018-12-16T01:23:52.720Z,102593.19
2018-12-16T01:26:21.072Z,102590.70
2018-12-16T01:28:49.404Z,102582.67
2018-12-16T01:31:17.742Z,102581.70
2018-12-16T01:33:46.089Z,102579.25
2018-12-16T01:36:14.410Z,102578.79
2018-12-16T01:38:42.988Z,102574.90
2018-12-16T01:41:11.128Z,102575.48
2018-12-16T01:43:39.457Z,102570.13
2018-12-16T01:46:07.796Z,102562.19
2018-12-16T01:48:36.169Z,102558.06
2018-12-16T01:51:04.503Z,102556.44
2018-12-16T01:53:32.871Z,102554.67
2018-12-16T01:56:01.221Z,102550.81
2018-12-16T01:58:29.574Z,102547.47
2018-12-16T02:00:57.925Z,102544.59
2018-12-16T02:03:26.273Z,102542.05
2018-12-16T02:05:54.619Z,102536.84
2018-12-16T02:08:23.179Z,102536.42
2018-12-16T02:10:51.290Z,102537.09
2018-12-16T02:13:19.628Z,102526.04
2018-12-16T02:15:48.015Z,102516.97
2018-12-16T02:18:16.384Z,102512.60
2018-12-16T02:20:44.718Z,102510.86
2018-12-16T02:23:13.075Z,102511.05
2018-12-16T02:25:41.417Z,102509.69
2018-12-16T02:28:09.746Z,102501.94
2018-12-16T02:30:38.100Z,102501.73
2018-12-16T02:33:06.432Z,102503.38
2018-12-16T02:35:34.776Z,102495.69
2018-12-16T02:38:03.346Z,102493.34
2018-12-16T02:40:31.450Z,102492.40
2018-12-16T02:42:59.825Z,102494.92
2018-12-16T02:45:28.148Z,102498.45
2018-12-16T02:47:56.492Z,102500.25
2018-12-16T02:50:24.856Z,102487.87
2018-12-16T02:52:53.412Z,102478.27
2018-12-16T02:55:21.537Z,102477.31
2018-12-16T02:57:49.877Z,102466.72
2018-12-16T03:00:18.309Z,102458.71
2018-12-16T03:02:46.596Z,102457.05
2018-12-16T03:05:14.917Z,102456.72
2018-12-16T03:07:43.280Z,102454.43
2018-12-16T03:10:12.597Z,102450.14
2018-12-16T03:12:40.969Z,102443.88
2018-12-16T03:15:09.310Z,102444.97
2018-12-16T03:17:37.661Z,102439.45
2018-12-16T03:20:05.997Z,102430.95
2018-12-16T03:22:34.343Z,102427.70
2018-12-16T03:25:02.678Z,102426.41
2018-12-16T03:27:31.018Z,102421.91
2018-12-16T03:29:59.359Z,102417.62
2018-12-16T03:32:27.697Z,102415.08
2018-12-16T03:34:56.060Z,102409.27
2018-12-16T03:37:24.379Z,102409.20
2018-12-16T03:39:52.724Z,102403.19
2018-12-16T03:42:21.058Z,102400.12
2018-12-16T03:44:49.400Z,102399.77
2018-12-16T03:47:17.738Z,102393.08
2018-12-16T03:49:46.071Z,102392.29
2018-12-16T03:52:14.440Z,102390.44
2018-12-16T03:54:42.773Z,102383.91
2018-12-16T03:57:11.121Z,102383.23
2018-12-16T03:59:39.443Z,102381.17
2018-12-16T04:02:07.774Z,102381.20
2018-12-16T04:04:36.102Z,102375.83
2018-12-16T04:07:04.433Z,102373.30
2018-12-16T04:09:32.787Z,102371.27
2018-12-16T04:12:01.132Z,102367.97
2018-12-16T04:14:29.477Z,102369.72
2018-12-16T04:16:57.877Z,102362.98
2018-12-16T04:19:26.139Z,102360.88
2018-12-16T04:21:54.694Z,102359.52
2018-12-16T04:24:22.808Z,102362.98
2018-12-16T04:26:51.147Z,102362.49
2018-12-16T04:29:19.492Z,102359.45
2018-12-16T04:31:48.055Z,102357.16
2018-12-16T04:34:16.145Z,102352.29
2018-12-16T04:36:44.497Z,102350.95
2018-12-16T04:39:12.839Z,102346.69
2018-12-16T04:41:41.175Z,102345.73
2018-12-16T04:44:09.513Z,102345.47
2018-12-16T04:46:37.836Z,102340.40
2018-12-16T04:49:06.182Z,102334.67
2018-12-16T04:51:34.509Z,102332.26
2018-12-16T04:54:02.881Z,102333.78
2018-12-16T04:56:31.225Z,102328.13
2018-12-16T04:58:59.546Z,102332.47
2018-12-16T05:01:28.104Z,102333.49
2018-12-16T05:03:56.227Z,102328.60
2018-12-16T05:06:24.554Z,102327.12
2018-12-16T05:08:52.887Z,102328.51
2018-12-16T05:11:21.243Z,102323.09
2018-12-16T05:13:49.590Z,102318.69
2018-12-16T05:16:17.949Z,102317.66
2018-12-16T05:18:46.308Z,102313.58
2018-12-16T05:21:14.675Z,102309.05
2018-12-16T05:23:43.004Z,102306.67
2018-12-16T05:26:11.434Z,102305.64
2018-12-16T05:28:39.667Z,102305.27
2018-12-16T05:31:08.045Z,102302.78
2018-12-16T05:33:36.377Z,102298.41
2018-12-16T05:36:04.732Z,102299.86
2018-12-16T05:38:33.050Z,102296.58
2018-12-16T05:41:01.416Z,102289.65
2018-12-16T05:43:29.772Z,102287.77
2018-12-16T05:45:58.101Z,102282.57
2018-12-16T05:48:26.432Z,102287.37
2018-12-16T05:50:54.766Z,102287.11
2018-12-16T05:53:23.113Z,102281.86
2018-12-16T05:55:51.483Z,102279.50
2018-12-16T05:58:19.827Z,102279.35
2018-12-16T06:00:48.155Z,102272.62
2018-12-16T06:03:16.483Z,102272.03
2018-12-16T06:05:44.822Z,102268.34
2018-12-16T06:08:13.160Z,102267.95
2018-12-16T06:10:41.479Z,102267.42
2018-12-16T06:13:09.815Z,102259.39
2018-12-16T06:15:38.153Z,102251.86
2018-12-16T06:18:06.502Z,102251.08
2018-12-16T06:20:34.828Z,102248.97
2018-12-16T06:23:03.171Z,102253.59
2018-12-16T06:25:31.515Z,102252.13
2018-12-16T06:27:59.843Z,102244.38
2018-12-16T06:30:28.181Z,102243.58
2018-12-16T06:32:56.504Z,102241.55
2018-12-16T06:35:24.834Z,102239.02
2018-12-16T06:37:53.745Z,102239.07
2018-12-16T06:40:21.881Z,102234.17
2018-12-16T06:42:50.459Z,102233.55
2018-12-16T06:45:18.795Z,102226.79
2018-12-16T06:47:46.893Z,102224.30
2018-12-16T06:50:15.226Z,102226.59
2018-12-16T06:52:43.538Z,102228.94
2018-12-16T06:55:11.871Z,102227.15
2018-12-16T06:57:40.226Z,102224.72
2018-12-16T07:00:08.585Z,102222.64
2018-12-16T07:02:36.929Z,102223.08
2018-12-16T07:05:05.263Z,102219.00
2018-12-16T07:07:33.603Z,102219.53
2018-12-16T07:10:01.934Z,102222.34
2018-12-16T07:12:30.269Z,102219.18
2018-12-16T07:14:58.635Z,102217.58
2018-12-16T07:17:27.014Z,102215.97
2018-12-16T07:19:55.346Z,102204.81
2018-12-16T07:22:23.671Z,102203.89
2018-12-16T07:24:52.034Z,102195.92
2018-12-16T07:27:20.336Z,102193.52
2018-12-16T07:29:48.717Z,102194.84
2018-12-16T07:32:17.070Z,102188.86
2018-12-16T07:34:45.399Z,102187.31
2018-12-16T07:37:18.986Z,102182.48
2018-12-16T07:39:42.047Z,102187.92
2018-12-16T07:42:10.429Z,102183.39
2018-12-16T07:44:38.786Z,102184.89
2018-12-16T07:47:07.348Z,102183.88
2018-12-16T07:49:35.661Z,102172.11
2018-12-16T07:52:03.992Z,102175.13
2018-12-16T07:54:32.330Z,102175.53
2018-12-16T07:57:00.675Z,102170.31
2018-12-16T07:59:29.033Z,102170.25
2018-12-16T08:01:57.382Z,102169.61
2018-12-16T08:04:25.712Z,102171.41
2018-12-16T08:06:54.028Z,102170.74
2018-12-16T08:09:22.359Z,102168.75
2018-12-16T08:11:50.929Z,102166.55
2018-12-16T08:14:19.285Z,102171.37
2018-12-16T08:16:47.797Z,102170.73
2018-12-16T08:19:16.125Z,102166.11
2018-12-16T08:21:44.448Z,102164.32
2018-12-16T08:24:12.787Z,102164.48
2018-12-16T08:26:41.192Z,102164.27
2018-12-16T08:29:09.571Z,102170.28
2018-12-16T08:31:37.976Z,102165.94
2018-12-16T08:34:06.344Z,102167.77
2018-12-16T08:36:34.738Z,102163.74
2018-12-16T08:39:03.133Z,102165.95
2018-12-16T08:41:31.449Z,102163.74
2018-12-16T08:43:59.776Z,102165.09
2018-12-16T08:46:28.117Z,102169.21
2018-12-16T08:48:56.466Z,102171.19
2018-12-16T08:51:24.801Z,102166.03
2018-12-16T08:53:53.166Z,102168.20
2018-12-16T08:56:21.517Z,102169.14
2018-12-16T08:58:49.887Z,102165.25
2018-12-16T09:01:18.540Z,102160.52
2018-12-16T09:03:47.145Z,102157.92
2018-12-16T09:06:15.529Z,102159.17
2018-12-16T09:08:44.198Z,102157.83
2018-12-16T09:11:12.575Z,102154.33
2018-12-16T09:13:41.239Z,102144.38
2018-12-16T09:16:10.115Z,102139.84
2018-12-16T09:18:38.517Z,102133.77
2018-12-16T09:21:06.895Z,102127.63
2018-12-16T09:23:36.160Z,102122.67
2018-12-16T09:26:04.787Z,102112.52
2018-12-16T09:28:33.134Z,102113.44
2018-12-16T09:31:02.677Z,102112.89
2018-12-16T09:33:31.057Z,102114.80
2018-12-16T09:35:59.411Z,102115.53
2018-12-16T09:38:27.762Z,102101.61
2018-12-16T09:40:57.000Z,102094.82
2018-12-16T09:43:25.362Z,102095.16
2018-12-16T09:45:53.745Z,102093.41
2018-12-16T09:48:22.172Z,102092.55
2018-12-16T09:50:50.670Z,102091.42
2018-12-16T09:53:19.019Z,102082.97
2018-12-16T09:55:47.121Z,102077.76
2018-12-16T09:58:15.470Z,102075.73
2018-12-16T10:00:43.829Z,102071.80
2018-12-16T10:03:12.196Z,102061.97
2018-12-16T10:05:40.777Z,102058.13
2018-12-16T10:08:08.914Z,102055.81
2018-12-16T10:10:37.278Z,102056.66
2018-12-16T10:13:05.836Z,102050.17
2018-12-16T10:15:34.180Z,102046.35
2018-12-16T10:18:02.525Z,102043.48
2018-12-16T10:20:30.856Z,102041.41
2018-12-16T10:23:00.084Z,102034.70
2018-12-16T10:25:28.450Z,102038.03
2018-12-16T10:27:56.816Z,102031.01
2018-12-16T10:30:25.150Z,102026.30
2018-12-16T10:32:53.497Z,102021.19
2018-12-16T10:35:22.764Z,102018.36
2018-12-16T10:37:51.112Z,102017.50
2018-12-16T10:40:19.458Z,102004.95
2018-12-16T10:42:47.794Z,102009.08
2018-12-16T10:45:16.134Z,101997.55
2018-12-16T10:47:44.475Z,101994.25
2018-12-16T10:50:12.819Z,101986.92
2018-12-16T10:52:41.168Z,101987.00
2018-12-16T10:55:09.495Z,101975.38
2018-12-16T10:57:37.860Z,101969.61
2018-12-16T11:00:09.032Z,101969.59
2018-12-16T11:02:37.353Z,101963.05
2018-12-16T11:05:05.747Z,101958.37
2018-12-16T11:07:34.100Z,101956.30
2018-12-16T11:10:02.432Z,101942.27
2018-12-16T11:12:30.779Z,101942.81
2018-12-16T11:14:59.113Z,101944.88
2018-12-16T11:17:27.702Z,101937.59
2018-12-16T11:19:56.032Z,101936.48
2018-12-16T11:22:24.384Z,101933.52
2018-12-16T11:24:52.487Z,101930.48
2018-12-16T11:27:20.909Z,101927.76
2018-12-16T11:29:49.259Z,101928.27
2018-12-16T11:32:17.594Z,101920.19
2018-12-16T11:34:45.931Z,101923.02
2018-12-16T11:37:14.284Z,101917.30
2018-12-16T11:39:42.618Z,101910.22
2018-12-16T11:42:10.942Z,101903.98
2018-12-16T11:44:39.283Z,101900.77
2018-12-16T11:47:07.632Z,101901.36
2018-12-16T11:49:36.290Z,101896.11
2018-12-16T11:52:04.736Z,101893.14
2018-12-16T11:54:33.147Z,101890.06
2018-12-16T11:57:01.481Z,101884.95
2018-12-16T11:59:29.867Z,101882.34
2018-12-16T12:01:58.219Z,101875.93
2018-12-16T12:04:27.286Z,101872.59
2018-12-16T12:06:55.945Z,101868.12
2018-12-16T12:09:24.301Z,101871.53
2018-12-16T12:11:52.672Z,101864.30
2018-12-16T12:14:21.031Z,101864.16
2018-12-16T12:16:49.364Z,101862.98
2018-12-16T12:19:17.745Z,101861.41
2018-12-16T12:21:46.083Z,101857.46
2018-12-16T12:24:14.467Z,101846.92
2018-12-16T12:26:42.843Z,101846.30
2018-12-16T12:29:11.219Z,101842.59
2018-12-16T12:31:39.569Z,101830.56
2018-12-16T12:34:08.378Z,101827.69
2018-12-16T12:36:36.694Z,101826.08
2018-12-16T12:39:05.027Z,101818.05
2018-12-16T12:41:33.369Z,101819.50
2018-12-16T12:44:01.777Z,101814.52
2018-12-16T12:46:30.315Z,101809.14
2018-12-16T12:48:58.654Z,101808.83
2018-12-16T12:51:27.033Z,101804.28
2018-12-16T12:53:55.354Z,101809.14
2018-12-16T12:56:23.689Z,101804.69
2018-12-16T12:58:52.144Z,101803.50
2018-12-16T13:01:20.477Z,101800.53
2018-12-16T13:03:48.813Z,101799.08
2018-12-16T13:06:17.150Z,101799.45
2018-12-16T13:08:46.389Z,101800.92
2018-12-16T13:11:15.089Z,101800.60
2018-12-16T13:13:43.480Z,101799.70
2018-12-16T13:16:14.272Z,101794.52
2018-12-16T13:18:43.139Z,101801.57
2018-12-16T13:21:12.425Z,101799.72
2018-12-16T13:23:44.853Z,101793.01
2018-12-16T13:26:14.433Z,101797.68
2018-12-16T13:28:42.723Z,101797.33
2018-12-16T13:31:11.082Z,101796.42
2018-12-16T13:33:39.431Z,101797.91
2018-12-16T13:36:07.817Z,101796.89
2018-12-16T13:38:36.196Z,101787.16
2018-12-16T13:41:04.608Z,101787.63
2018-12-16T13:43:32.946Z,101791.97
2018-12-16T13:46:01.304Z,101795.91
2018-12-16T13:48:29.702Z,101796.91
2018-12-16T13:50:58.055Z,101801.14
2018-12-16T13:53:28.147Z,101800.49
2018-12-16T13:55:56.819Z,101793.16
2018-12-16T13:58:25.174Z,101792.36
2018-12-16T14:00:54.896Z,101790.17
2018-12-16T14:03:23.571Z,101788.80
2018-12-16T14:05:51.977Z,101789.45
2018-12-16T14:08:20.320Z,101792.63
2018-12-16T14:10:48.933Z,101791.12
2018-12-16T14:13:17.307Z,101788.41
2018-12-16T14:15:52.160Z,101783.99
2018-12-16T14:18:14.052Z,101784.83
2018-12-16T14:20:43.342Z,101782.69
2018-12-16T14:23:11.688Z,101773.02
2018-12-16T14:25:40.086Z,101770.95
2018-12-16T14:28:08.417Z,101771.20
2018-12-16T14:30:36.754Z,101774.02
2018-12-16T14:33:05.984Z,101776.73
2018-12-16T14:35:34.569Z,101777.64
2018-12-16T14:38:12.576Z,101774.35
2018-12-16T14:43:37.390Z,101777.66
2018-12-16T14:46:05.823Z,101770.39
2018-12-16T14:48:34.164Z,101765.09
2018-12-16T14:51:02.741Z,101756.83
2018-12-16T14:53:30.857Z,101758.41
2018-12-16T14:55:59.433Z,101753.31
2018-12-16T14:58:27.582Z,101751.75
2018-12-16T15:00:55.891Z,101751.66
2018-12-16T15:03:24.243Z,101751.28
2018-12-16T15:05:52.741Z,101745.78
2018-12-16T15:08:21.162Z,101746.45
2018-12-16T15:10:49.525Z,101738.55
2018-12-16T15:13:17.879Z,101736.09
2018-12-16T15:15:46.220Z,101724.70
2018-12-16T15:18:14.557Z,101724.85
2018-12-16T15:20:43.123Z,101722.53
2018-12-16T15:23:11.244Z,101720.52
2018-12-16T15:25:39.591Z,101710.16
2018-12-16T15:28:07.935Z,101708.07
2018-12-16T15:30:36.267Z,101709.36
2018-12-16T15:33:05.223Z,101707.57
2018-12-16T15:35:33.551Z,101706.62
2018-12-16T15:38:01.889Z,101701.48
2018-12-16T15:40:30.241Z,101698.52
2018-12-16T15:42:58.589Z,101690.17
2018-12-16T15:45:26.939Z,101687.63
2018-12-16T15:47:55.275Z,101685.13
2018-12-16T15:50:24.009Z,101687.20
2018-12-16T15:52:52.336Z,101688.80
2018-12-16T15:55:20.697Z,101686.83
2018-12-16T15:57:49.047Z,101690.33
2018-12-16T16:00:17.609Z,101687.75
2018-12-16T16:02:45.730Z,101691.55
2018-12-16T16:05:14.060Z,101687.25
2018-12-16T16:07:42.406Z,101681.88
2018-12-16T16:10:10.766Z,101681.80
2018-12-16T16:12:43.240Z,101690.40
2018-12-16T16:15:10.692Z,101688.41
2018-12-16T16:17:39.924Z,101694.78
2018-12-16T16:20:07.553Z,101703.98
2018-12-16T16:22:38.881Z,101702.09
2018-12-16T16:25:06.963Z,101700.57
2018-12-16T16:27:34.939Z,101701.28
2018-12-16T16:30:03.254Z,101701.17
2018-12-16T16:32:31.542Z,101699.55
2018-12-16T16:34:59.880Z,101696.02
2018-12-16T16:37:28.238Z,101696.38
2018-12-16T16:39:56.570Z,101692.86
2018-12-16T16:42:24.914Z,101694.91
2018-12-16T16:44:53.271Z,101698.98
2018-12-16T16:47:21.613Z,101697.36
2018-12-16T16:49:49.970Z,101699.86
2018-12-16T16:52:18.613Z,101699.02
2018-12-16T16:54:46.951Z,101697.13
2018-12-16T16:57:15.303Z,101699.11
2018-12-16T16:59:43.639Z,101702.05
2018-12-16T17:02:11.972Z,101705.30
2018-12-16T17:04:40.342Z,101703.84
2018-12-16T17:07:08.685Z,101700.71
2018-12-16T17:09:37.018Z,101703.92
2018-12-16T17:12:05.377Z,101710.94
2018-12-16T17:14:33.768Z,101706.45
2018-12-16T17:17:02.120Z,101706.81
2018-12-16T17:19:30.466Z,101709.34
2018-12-16T17:21:58.810Z,101706.16
2018-12-16T17:24:27.168Z,101712.36
2018-12-16T17:26:55.554Z,101710.83
2018-12-16T17:29:23.915Z,101713.86
2018-12-16T17:31:52.239Z,101716.55
2018-12-16T17:34:20.607Z,101716.50
2018-12-16T17:36:48.964Z,101714.97
2018-12-16T17:39:17.311Z,101716.22
2018-12-16T17:41:45.652Z,101721.06
2018-12-16T17:44:14.006Z,101716.62
2018-12-16T17:46:42.680Z,101717.13
2018-12-16T17:49:11.017Z,101717.36
2018-12-16T17:51:39.483Z,101712.30
2018-12-16T17:54:08.054Z,101713.88
2018-12-16T17:56:37.211Z,101712.31
2018-12-16T17:59:04.528Z,101713.80
2018-12-16T18:01:32.868Z,101710.71
2018-12-16T18:04:01.238Z,101709.84
2018-12-16T18:06:29.584Z,101714.46
2018-12-16T18:08:57.928Z,101714.75
2018-12-16T18:11:26.264Z,101720.76
2018-12-16T18:13:55.639Z,101723.77
2018-12-16T18:16:24.019Z,101717.52
2018-12-16T18:18:52.830Z,101717.50
2018-12-16T18:21:21.414Z,101717.42
2018-12-16T18:23:48.953Z,101722.87
2018-12-16T18:26:17.919Z,101718.77
2018-12-16T18:28:46.401Z,101719.42
2018-12-16T18:31:14.813Z,101721.58
2018-12-16T18:33:43.101Z,101723.61
2018-12-16T18:36:11.460Z,101729.49
2018-12-16T18:38:39.902Z,101734.14
2018-12-16T18:41:08.388Z,101728.98
2018-12-16T18:43:36.983Z,101727.12
2018-12-16T18:46:05.443Z,101729.33
2018-12-16T18:48:34.180Z,101732.59
2018-12-16T18:51:02.753Z,101731.33
2018-12-16T18:53:30.884Z,101731.34
2018-12-16T18:55:59.211Z,101736.45
2018-12-16T18:58:27.556Z,101733.95
2018-12-16T19:00:56.271Z,101738.32
2018-12-16T19:03:24.615Z,101742.05
2018-12-16T19:05:52.942Z,101734.76
2018-12-16T19:08:21.378Z,101733.67
2018-12-16T19:10:49.722Z,101731.87
2018-12-16T19:13:18.069Z,101732.72
2018-12-16T19:15:46.403Z,101730.00
2018-12-16T19:18:14.778Z,101732.67
2018-12-16T19:20:43.126Z,101734.06
2018-12-16T19:23:11.482Z,101734.47
2018-12-16T19:25:39.803Z,101735.48
2018-12-16T19:28:08.140Z,101734.59
2018-12-16T19:30:36.700Z,101739.94
2018-12-16T19:33:04.815Z,101745.84
2018-12-16T19:35:33.857Z,101740.70
2018-12-16T19:38:03.316Z,101741.39
2018-12-16T19:40:30.817Z,101745.58
2018-12-16T19:42:59.154Z,101745.67
2018-12-16T19:45:27.488Z,101749.09
2018-12-16T19:47:56.108Z,101748.75
2018-12-16T19:50:24.552Z,101748.20
2018-12-16T19:52:52.876Z,101751.23
2018-12-16T19:55:22.026Z,101755.73
2018-12-16T19:57:50.383Z,101759.88
2018-12-16T20:00:18.750Z,101762.23
2018-12-16T20:02:47.109Z,101764.74
2018-12-16T20:05:21.127Z,101766.64
2018-12-16T20:07:49.722Z,101769.09
2018-12-16T20:10:17.830Z,101770.38
2018-12-16T20:12:47.081Z,101771.62
2018-12-16T20:15:15.493Z,101770.98
2018-12-16T20:17:44.590Z,101773.11
2018-12-16T20:20:13.272Z,101776.33
2018-12-16T20:22:41.409Z,101775.52
2018-12-16T20:25:09.775Z,101777.60
2018-12-16T20:27:38.135Z,101778.20
2018-12-16T20:30:06.552Z,101777.11
2018-12-16T20:32:34.915Z,101782.34
2018-12-16T20:35:03.232Z,101780.74
2018-12-16T20:37:32.392Z,101779.01
2018-12-16T20:40:00.965Z,101773.70
2018-12-16T20:42:29.083Z,101773.77
2018-12-16T20:44:57.407Z,101775.81
2018-12-16T20:47:25.740Z,101774.92
2018-12-16T20:49:55.580Z,101776.13
2018-12-16T20:52:23.984Z,101776.75
2018-12-16T20:54:52.315Z,101776.40
2018-12-16T20:57:20.865Z,101773.83
2018-12-16T20:59:50.696Z,101777.50
2018-12-16T21:02:17.370Z,101781.45
2018-12-16T21:04:45.700Z,101783.74
2018-12-16T21:07:14.045Z,101787.98
2018-12-16T21:09:42.416Z,101784.80
2018-12-16T21:12:10.755Z,101788.56
2018-12-16T21:14:44.626Z,101791.28
2018-12-16T21:17:18.527Z,101791.74
2018-12-16T21:19:46.869Z,101792.57
2018-12-16T21:22:15.507Z,101797.39
2018-12-16T21:24:43.833Z,101793.09
2018-12-16T21:27:12.301Z,101793.19
2018-12-16T21:29:40.711Z,101794.09
2018-12-16T21:32:09.154Z,101799.02
2018-12-16T21:34:37.697Z,101799.37
2018-12-16T21:37:06.340Z,101806.29
2018-12-16T21:39:34.852Z,101803.91
2018-12-16T21:42:03.225Z,101805.42
2018-12-16T21:44:31.556Z,101807.96
2018-12-16T21:47:01.969Z,101798.38
2018-12-16T21:49:30.449Z,101803.32
2018-12-16T21:51:58.838Z,101797.77
2018-12-16T21:54:27.197Z,101797.34
2018-12-16T21:56:55.510Z,101793.80
2018-12-16T21:59:24.787Z,101793.50
2018-12-16T22:01:53.142Z,101795.73
2018-12-16T22:04:22.393Z,101797.88
2018-12-16T22:06:50.727Z,101799.11
2018-12-16T22:09:19.060Z,101797.86
2018-12-16T22:11:47.401Z,101795.20
2018-12-16T22:14:15.879Z,101795.14
2018-12-16T22:16:44.491Z,101796.81
2018-12-16T22:19:13.271Z,101795.53
2018-12-16T22:21:41.610Z,101794.91
2018-12-16T22:24:09.952Z,101801.20
2018-12-16T22:26:38.487Z,101800.84
2018-12-16T22:29:06.851Z,101802.06
2018-12-16T22:31:35.319Z,101808.85
2018-12-16T22:34:04.002Z,101809.13
2018-12-16T22:36:33.001Z,101810.02
2018-12-16T22:39:01.545Z,101813.98
2018-12-16T22:41:29.792Z,101812.87
2018-12-16T22:43:58.180Z,101814.90
2018-12-16T22:46:26.580Z,101813.58
2018-12-16T22:48:55.074Z,101812.66
2018-12-16T22:51:23.855Z,101813.03
2018-12-16T22:53:52.084Z,101812.20
2018-12-16T22:56:20.750Z,101812.77
2018-12-16T22:58:54.346Z,101814.50
2018-12-16T23:01:17.512Z,101817.06
2018-12-16T23:03:46.019Z,101814.30
2018-12-16T23:06:15.157Z,101815.61
2018-12-16T23:08:43.505Z,101816.72
2018-12-16T23:11:11.863Z,101818.77
2018-12-16T23:13:40.196Z,101819.70
2018-12-16T23:16:08.545Z,101822.69
2018-12-16T23:18:36.890Z,101824.55
2018-12-16T23:21:05.231Z,101823.66
2018-12-16T23:23:33.547Z,101824.01
2018-12-16T23:26:01.900Z,101819.06
2018-12-16T23:28:30.237Z,101821.48
2018-12-16T23:30:58.578Z,101822.19
2018-12-16T23:33:26.899Z,101827.11
2018-12-16T23:35:55.237Z,101826.25
2018-12-16T23:38:23.565Z,101833.14
2018-12-16T23:40:51.888Z,101835.48
2018-12-16T23:43:20.237Z,101835.50
2018-12-16T23:45:48.585Z,101841.94
2018-12-16T23:48:16.912Z,101850.94
2018-12-16T23:50:45.258Z,101849.45
2018-12-16T23:53:13.579Z,101848.91
2018-12-16T23:55:41.912Z,101850.06
2018-12-16T23:58:10.242Z,101846.12
